createdAt,value
2017-09-05T00:00:03.218Z,1
2017-09-05T00:05:02.733Z,0
2017-09-05T00:10:03.354Z,1
2017-09-05T00:15:02.791Z,0
2017-09-05T00:20:03.301Z,0
2017-09-05T00:25:02.840Z,0
2017-09-05T00:30:03.232Z,1
2017-09-05T00:35:02.763Z,1
2017-09-05T00:40:03.253Z,1
2017-09-05T00:45:02.679Z,1
2017-09-05T00:50:03.265Z,0
2017-09-05T00:55:02.683Z,2
2017-09-05T01:00:03.104Z,2
2017-09-05T01:05:02.644Z,0
2017-09-05T01:10:03.187Z,0
2017-09-05T01:15:02.855Z,0
2017-09-05T01:20:03.446Z,0
2017-09-05T01:25:03.063Z,0
2017-09-05T01:30:03.512Z,0
2017-09-05T01:35:03.149Z,1
2017-09-05T01:40:02.762Z,0
2017-09-05T01:45:03.448Z,0
2017-09-05T01:50:03.036Z,0
2017-09-05T01:55:03.488Z,0
2017-09-05T02:00:02.875Z,0
2017-09-05T02:05:03.456Z,0
2017-09-05T02:10:03.132Z,0
2017-09-05T02:15:03.552Z,0
2017-09-05T02:20:03.115Z,0
2017-09-05T02:25:03.563Z,0
2017-09-05T02:30:03.096Z,0
2017-09-05T02:35:03.509Z,0
2017-09-05T02:40:02.962Z,0
2017-09-05T02:45:03.485Z,0
2017-09-05T02:50:03.098Z,0
2017-09-05T02:55:03.493Z,0
2017-09-05T03:00:03.036Z,0
2017-09-05T03:05:02.606Z,0
2017-09-05T03:10:03.080Z,0
2017-09-05T03:15:02.966Z,0
2017-09-05T03:20:03.422Z,0
2017-09-05T03:25:02.801Z,0
2017-09-05T03:30:03.219Z,0
2017-09-05T03:35:02.849Z,0
2017-09-05T03:40:03.422Z,0
2017-09-05T03:45:03.023Z,0
2017-09-05T03:50:02.636Z,0
2017-09-05T03:55:03.115Z,0
2017-09-05T04:00:02.834Z,2
2017-09-05T04:05:03.327Z,0
2017-09-05T04:10:02.802Z,0
2017-09-05T04:15:03.261Z,0
2017-09-05T04:20:02.696Z,1
2017-09-05T04:25:03.173Z,2
2017-09-05T04:30:02.760Z,1
2017-09-05T04:35:03.186Z,0
2017-09-05T04:40:02.813Z,0
2017-09-05T04:45:03.586Z,0
2017-09-05T04:50:03.153Z,0
2017-09-05T04:55:02.733Z,1
2017-09-05T05:00:03.311Z,0
2017-09-05T05:05:02.994Z,2
2017-09-05T05:10:02.775Z,0
2017-09-05T05:15:03.278Z,0
2017-09-05T05:20:02.762Z,0
2017-09-05T05:25:03.176Z,0
2017-09-05T05:30:02.611Z,0
2017-09-05T05:35:03.052Z,1
2017-09-05T05:40:03.484Z,0
2017-09-05T05:45:03.105Z,0
2017-09-05T05:50:03.505Z,1
2017-09-05T05:55:02.889Z,0
2017-09-05T06:00:03.300Z,0
2017-09-05T06:05:02.711Z,0
2017-09-05T06:10:03.174Z,2
2017-09-05T06:15:02.601Z,2
2017-09-05T06:20:03.209Z,2
2017-09-05T06:25:02.601Z,0
2017-09-05T06:30:03.081Z,0
2017-09-05T06:35:02.672Z,0
2017-09-05T06:40:03.116Z,2
2017-09-05T06:45:03.533Z,4
2017-09-05T06:50:03.136Z,4
2017-09-05T06:55:02.716Z,2
2017-09-05T07:00:03.139Z,3
2017-09-05T07:05:02.563Z,1
2017-09-05T07:10:03.012Z,0
2017-09-05T07:15:02.640Z,3
2017-09-05T07:20:03.074Z,2
2017-09-05T07:25:03.485Z,3
2017-09-05T07:30:03.324Z,3
2017-09-05T07:35:03.049Z,3
2017-09-05T07:40:02.674Z,3
2017-09-05T07:45:03.102Z,5
2017-09-05T07:50:02.629Z,5
2017-09-05T07:55:03.205Z,2
2017-09-05T08:00:02.585Z,3
2017-09-05T08:05:03.238Z,2
2017-09-05T08:10:02.670Z,2
2017-09-05T08:15:03.084Z,2
2017-09-05T08:20:03.486Z,2
2017-09-05T08:25:02.943Z,3
2017-09-05T08:30:03.337Z,2
2017-09-05T08:35:02.862Z,0
2017-09-05T08:40:03.345Z,4
2017-09-05T08:45:02.843Z,4
2017-09-05T08:50:03.415Z,4
2017-09-05T08:55:02.800Z,2
2017-09-05T09:00:03.179Z,0
2017-09-05T09:05:02.588Z,5
2017-09-05T09:10:03.117Z,3
2017-09-05T09:15:02.673Z,3
2017-09-05T09:20:03.146Z,0
2017-09-05T09:25:02.607Z,1
2017-09-05T09:30:03.133Z,0
2017-09-05T09:35:02.862Z,2
2017-09-05T09:40:03.313Z,4
2017-09-05T09:45:02.798Z,2
2017-09-05T09:50:03.401Z,3
2017-09-05T09:55:02.797Z,2
2017-09-05T10:00:03.267Z,6
2017-09-05T10:05:02.744Z,3
2017-09-05T10:10:03.206Z,3
2017-09-05T10:15:02.558Z,3
2017-09-05T10:20:03.210Z,0
2017-09-05T10:25:02.640Z,2
2017-09-05T10:30:03.056Z,0
2017-09-05T10:35:03.512Z,7
2017-09-05T10:40:02.976Z,6
2017-09-05T10:45:03.410Z,4
2017-09-05T10:50:03.004Z,4
2017-09-05T10:55:02.576Z,6
2017-09-05T11:00:02.995Z,2
2017-09-05T11:05:03.505Z,7
2017-09-05T11:10:02.965Z,8
2017-09-05T11:15:03.414Z,4
2017-09-05T11:20:02.997Z,4
2017-09-05T11:25:03.504Z,4
2017-09-05T11:30:02.932Z,5
2017-09-05T11:35:03.464Z,4
2017-09-05T11:40:03.080Z,5
2017-09-05T11:45:02.618Z,7
2017-09-05T11:50:03.045Z,4
2017-09-05T11:55:03.481Z,6
2017-09-05T12:00:02.889Z,3
2017-09-05T12:05:03.301Z,5
2017-09-05T12:10:02.839Z,7
2017-09-05T12:15:03.361Z,4
2017-09-05T12:20:02.791Z,3
2017-09-05T12:25:03.228Z,7
2017-09-05T12:30:02.616Z,4
2017-09-05T12:35:03.134Z,7
2017-09-05T12:40:02.631Z,7
2017-09-05T12:45:03.086Z,5
2017-09-05T12:50:02.665Z,7
2017-09-05T12:55:03.243Z,5
2017-09-05T13:00:02.772Z,5
2017-09-05T13:05:03.182Z,5
2017-09-05T13:10:02.658Z,5
2017-09-05T13:15:03.124Z,5
2017-09-05T13:20:03.556Z,5
2017-09-05T13:25:02.952Z,5
2017-09-05T13:30:03.517Z,4
2017-09-05T13:35:03.004Z,7
2017-09-05T13:40:03.585Z,7
2017-09-05T13:45:03.028Z,4
2017-09-05T13:50:02.575Z,4
2017-09-05T13:55:03.184Z,4
2017-09-05T14:00:03.557Z,8
2017-09-05T14:05:03.127Z,4
2017-09-05T14:10:02.754Z,3
2017-09-05T14:15:03.169Z,4
2017-09-05T14:20:03.566Z,3
2017-09-05T14:25:03.106Z,2
2017-09-05T14:30:02.620Z,3
2017-09-05T14:35:03.025Z,2
2017-09-05T14:40:02.619Z,4
2017-09-05T14:45:03.104Z,4
2017-09-05T14:50:03.529Z,7
2017-09-05T14:55:02.908Z,3
2017-09-05T15:00:03.385Z,2
2017-09-05T15:05:02.845Z,3
2017-09-05T15:10:03.435Z,4
2017-09-05T15:15:02.875Z,4
2017-09-05T15:20:03.299Z,4
2017-09-05T15:25:02.679Z,6
2017-09-05T15:30:03.288Z,5
2017-09-05T15:35:02.730Z,3
2017-09-05T15:40:03.215Z,3
2017-09-05T15:45:02.745Z,4
2017-09-05T15:50:03.334Z,5
2017-09-05T15:55:02.860Z,3
2017-09-05T16:00:03.357Z,4
2017-09-05T16:05:02.983Z,4
2017-09-05T16:10:03.452Z,4
2017-09-05T16:15:02.951Z,3
2017-09-05T16:20:03.438Z,4
2017-09-05T16:25:02.977Z,7
2017-09-05T16:30:03.457Z,5
2017-09-05T16:35:02.959Z,5
2017-09-05T16:40:03.403Z,2
2017-09-05T16:45:02.961Z,2
2017-09-05T16:50:02.590Z,3
2017-09-05T16:55:03.167Z,3
2017-09-05T17:00:02.658Z,3
2017-09-05T17:05:03.076Z,2
2017-09-05T17:10:03.554Z,3
2017-09-05T17:15:03.100Z,3
2017-09-05T17:20:03.566Z,0
2017-09-05T17:25:02.942Z,0
2017-09-05T17:30:03.449Z,1
2017-09-05T17:35:02.840Z,0
2017-09-05T17:40:03.293Z,1
2017-09-05T17:45:02.734Z,3
2017-09-05T17:50:03.220Z,2
2017-09-05T17:55:02.761Z,0
2017-09-05T18:00:03.185Z,1
2017-09-05T18:05:02.697Z,2
2017-09-05T18:10:03.302Z,0
2017-09-05T18:15:02.844Z,0
2017-09-05T18:20:03.498Z,0
2017-09-05T18:25:03.151Z,0
2017-09-05T18:30:02.727Z,0
2017-09-05T18:35:03.293Z,0
2017-09-05T18:40:02.870Z,0
2017-09-05T18:45:03.398Z,0
2017-09-05T18:50:02.821Z,0
2017-09-05T18:55:03.444Z,0
2017-09-05T19:00:03.007Z,0
2017-09-05T19:05:03.548Z,0
2017-09-05T19:10:03.191Z,0
2017-09-05T19:15:02.774Z,0
2017-09-05T19:20:03.335Z,0
2017-09-05T19:25:02.706Z,0
2017-09-05T19:30:03.177Z,0
2017-09-05T19:35:02.662Z,0
2017-09-05T19:40:03.288Z,0
2017-09-05T19:45:02.862Z,0
2017-09-05T19:50:03.322Z,3
2017-09-05T19:55:02.851Z,3
2017-09-05T20:00:03.269Z,3
2017-09-05T20:05:02.792Z,4
2017-09-05T20:10:03.411Z,2
2017-09-05T20:15:02.794Z,8
2017-09-05T20:20:03.267Z,8
2017-09-05T20:25:02.679Z,9
2017-09-05T20:30:03.109Z,7
2017-09-05T20:35:02.773Z,4
2017-09-05T20:40:03.267Z,5
2017-09-05T20:45:02.861Z,3
2017-09-05T20:50:03.272Z,4
2017-09-05T20:55:02.728Z,5
2017-09-05T21:00:03.453Z,7
2017-09-05T21:05:02.866Z,9
2017-09-05T21:10:03.497Z,8
2017-09-05T21:15:02.863Z,6
2017-09-05T21:20:03.448Z,6
2017-09-05T21:25:03.062Z,8
2017-09-05T21:30:03.421Z,3
2017-09-05T21:35:02.941Z,3
2017-09-05T21:40:03.527Z,2
2017-09-05T21:45:02.895Z,2
2017-09-05T21:50:03.331Z,0
2017-09-05T21:55:02.854Z,2
2017-09-05T22:00:03.477Z,1
2017-09-05T22:05:02.892Z,0
2017-09-05T22:10:03.805Z,0
2017-09-05T22:15:03.410Z,0
2017-09-05T22:20:03.020Z,0
2017-09-05T22:25:03.490Z,0
2017-09-05T22:30:02.917Z,0
2017-09-05T22:35:03.451Z,0
2017-09-05T22:40:02.938Z,0
2017-09-05T22:45:02.592Z,0
2017-09-05T22:50:03.011Z,0
2017-09-05T22:55:02.664Z,0
2017-09-05T23:00:03.646Z,1
2017-09-05T23:05:02.634Z,0
2017-09-05T23:10:03.240Z,0
2017-09-05T23:15:02.803Z,2
2017-09-05T23:20:03.278Z,2
2017-09-05T23:25:02.762Z,0
2017-09-05T23:30:03.257Z,0
2017-09-05T23:35:02.831Z,0
2017-09-05T23:40:03.335Z,0
2017-09-05T23:45:02.916Z,0
2017-09-05T23:50:03.663Z,0
2017-09-05T23:55:03.399Z,0
